Time;durP1;ratioP1;P1;durP2;ratioP2;P2;SDS_P1;SDS_P2;PMS_P1;PMS_P2;Temp;Humidity;BMP_temperature;BMP_pressure;BME280_temperature;BME280_humidity;BME280_pressure;Samples;Min_cycle;Max_cycle;Signal;HPM_P1;HPM_P2
2022/11/16 00:01:25;;;;;;;0.10;0.10;;;11.30;99.90;;;;;;5049877;28;20055;-66
2022/11/16 00:03:52;;;;;;;0.00;0.00;;;11.30;99.90;;;;;;5064491;28;20037;-66
2022/11/16 00:06:18;;;;;;;0.15;0.15;;;11.30;99.90;;;;;;5072136;28;20059;-66
2022/11/16 00:09:21;;;;;;;0.10;0.10;;;11.30;99.90;;;;;;5057463;28;20063;-66
2022/11/16 00:11:36;;;;;;;0.10;0.10;;;11.20;99.90;;;;;;5035601;28;20408;-66
2022/11/16 00:14:03;;;;;;;0.10;0.10;;;11.30;99.90;;;;;;5063777;28;20048;-66
2022/11/16 00:16:28;;;;;;;0.95;0.77;;;11.30;99.90;;;;;;5064418;28;20037;-66
2022/11/16 00:18:56;;;;;;;0.20;0.20;;;11.30;99.90;;;;;;5054616;28;20047;-66
2022/11/16 00:21:23;;;;;;;0.10;0.10;;;11.30;99.90;;;;;;5055752;28;20036;-66
2022/11/16 00:23:48;;;;;;;0.20;0.20;;;11.30;99.90;;;;;;5053839;28;20056;-66
2022/11/16 00:26:14;;;;;;;0.43;0.20;;;11.30;99.90;;;;;;5065885;28;20048;-66
2022/11/16 00:28:39;;;;;;;0.40;0.40;;;11.30;99.90;;;;;;5067715;28;20059;-66
2022/11/16 00:31:06;;;;;;;0.00;0.00;;;11.30;99.90;;;;;;5062127;28;20036;-67
2022/11/16 00:33:33;;;;;;;1.00;0.20;;;11.30;99.90;;;;;;5046714;28;20059;-67
2022/11/16 00:36:03;;;;;;;0.20;0.20;;;11.30;99.90;;;;;;5070585;28;20044;-67
2022/11/16 00:38:29;;;;;;;3.42;1.17;;;11.40;99.90;;;;;;5069590;28;20045;-67
2022/11/16 00:40:55;;;;;;;0.20;0.20;;;11.40;99.90;;;;;;5058445;28;20064;-66
2022/11/16 00:43:21;;;;;;;0.63;0.63;;;11.40;99.90;;;;;;5068379;28;20411;-66
2022/11/16 00:45:46;;;;;;;0.10;0.10;;;11.40;99.90;;;;;;5069946;28;20391;-66
2022/11/16 00:48:12;;;;;;;0.10;0.10;;;11.40;99.90;;;;;;5049044;28;20132;-66
2022/11/16 00:50:38;;;;;;;0.65;0.65;;;11.40;99.90;;;;;;5052259;28;20051;-66
2022/11/16 00:53:05;;;;;;;0.50;0.50;;;11.40;99.90;;;;;;5043154;28;20488;-67
2022/11/16 00:55:30;;;;;;;0.10;0.10;;;11.40;99.90;;;;;;5070426;28;20506;-66
2022/11/16 00:57:56;;;;;;;0.50;0.50;;;11.50;99.90;;;;;;5058680;28;20052;-66
2022/11/16 01:00:22;;;;;;;0.10;0.10;;;11.40;99.90;;;;;;5050955;28;20083;-66
2022/11/16 01:02:48;;;;;;;0.15;0.15;;;11.40;99.90;;;;;;5042268;28;20049;-66
2022/11/16 01:05:13;;;;;;;0.38;0.38;;;11.40;99.90;;;;;;5032494;28;20053;-66
2022/11/16 01:07:39;;;;;;;0.35;0.35;;;11.40;99.90;;;;;;5069481;28;20041;-66
2022/11/16 01:10:10;;;;;;;0.10;0.10;;;11.40;99.90;;;;;;5046418;28;20535;-66
2022/11/16 01:12:36;;;;;;;0.03;0.03;;;11.40;99.90;;;;;;5061881;28;20076;-66
2022/11/16 01:15:03;;;;;;;0.10;0.10;;;11.40;99.90;;;;;;5068997;28;20063;-66
2022/11/16 01:17:28;;;;;;;0.22;0.22;;;11.40;99.90;;;;;;5070050;28;20117;-66
2022/11/16 01:19:54;;;;;;;0.15;0.15;;;11.40;99.90;;;;;;5054597;28;20040;-66
2022/11/16 01:22:19;;;;;;;0.10;0.10;;;11.40;99.90;;;;;;5047492;28;20044;-66
2022/11/16 01:24:46;;;;;;;0.38;0.38;;;11.40;99.90;;;;;;5068532;28;20127;-66
2022/11/16 01:27:12;;;;;;;0.55;0.55;;;11.50;99.90;;;;;;5067556;28;20040;-66
2022/11/16 01:29:38;;;;;;;0.30;0.30;;;11.40;99.90;;;;;;5050680;28;20075;-67
2022/11/16 01:32:04;;;;;;;0.30;0.30;;;11.40;99.90;;;;;;5062987;28;20504;-67
2022/11/16 01:34:29;;;;;;;0.15;0.15;;;11.50;99.90;;;;;;5050578;28;20055;-67
2022/11/16 01:36:55;;;;;;;0.13;0.13;;;11.50;99.90;;;;;;5062227;28;20489;-66
2022/11/16 01:39:20;;;;;;;0.25;0.25;;;11.50;99.90;;;;;;5069538;28;20055;-67
2022/11/16 01:41:46;;;;;;;0.43;0.40;;;11.50;99.90;;;;;;5051621;28;20385;-67
2022/11/16 01:44:30;;;;;;;0.20;0.20;;;11.40;99.90;;;;;;5052813;28;20045;-67
2022/11/16 01:47:01;;;;;;;0.10;0.10;;;11.50;99.90;;;;;;5047496;28;20044;-67
2022/11/16 01:49:29;;;;;;;0.22;0.22;;;11.50;99.90;;;;;;5069795;28;20460;-67
2022/11/16 01:52:09;;;;;;;0.32;0.25;;;11.50;99.90;;;;;;5060188;28;20106;-66
2022/11/16 01:54:39;;;;;;;0.28;0.28;;;11.50;99.90;;;;;;5053593;28;20045;-66
2022/11/16 01:57:08;;;;;;;0.28;0.28;;;11.60;99.90;;;;;;5069775;28;20113;-66
2022/11/16 01:59:34;;;;;;;0.08;0.08;;;11.50;99.90;;;;;;5044167;28;20073;-66
2022/11/16 02:02:00;;;;;;;0.20;0.20;;;11.50;99.90;;;;;;5041140;28;20488;-66
2022/11/16 02:04:26;;;;;;;0.88;0.88;;;11.50;99.90;;;;;;5046450;28;20557;-66
2022/11/16 02:09:52;;;;;;;0.10;0.10;;;11.50;99.90;;;;;;5066276;28;20060;-66
2022/11/16 02:10:33;;;;;;;0.35;0.35;;;11.50;99.90;;;;;;5057093;28;20048;-66
2022/11/16 02:13:32;;;;;;;0.10;0.10;;;11.40;99.90;;;;;;5054812;28;20041;-67
2022/11/16 02:16:09;;;;;;;0.03;0.03;;;11.50;99.90;;;;;;5019719;28;20052;-67
2022/11/16 02:18:41;;;;;;;1.80;0.75;;;11.50;99.90;;;;;;5040326;28;20404;-66
2022/11/16 02:21:21;;;;;;;0.10;0.10;;;11.40;99.90;;;;;;5066528;28;20452;-66
2022/11/16 02:24:02;;;;;;;0.10;0.10;;;11.50;99.90;;;;;;5049217;28;20076;-66
2022/11/16 02:26:52;;;;;;;0.20;0.20;;;11.50;99.90;;;;;;5051724;28;20090;-66
2022/11/16 02:29:28;;;;;;;1.00;1.00;;;11.50;99.90;;;;;;5045770;28;20136;-67
2022/11/16 02:32:15;;;;;;;0.20;0.20;;;11.50;99.90;;;;;;5049309;28;20076;-66
2022/11/16 02:34:49;;;;;;;0.10;0.10;;;11.50;99.90;;;;;;5051267;28;20791;-66
2022/11/16 02:37:17;;;;;;;0.57;0.52;;;11.50;99.90;;;;;;5065458;28;20124;-66
2022/11/16 02:39:46;;;;;;;0.10;0.10;;;11.40;99.90;;;;;;5050292;28;20037;-66
2022/11/16 02:42:18;;;;;;;0.20;0.20;;;11.40;99.90;;;;;;5046004;28;20044;-66
2022/11/16 02:44:47;;;;;;;0.40;0.40;;;11.40;99.90;;;;;;5071755;28;20049;-66
2022/11/16 02:47:19;;;;;;;0.28;0.28;;;11.50;99.90;;;;;;5051374;28;20085;-66
2022/11/16 02:49:51;;;;;;;0.30;0.30;;;11.50;99.90;;;;;;5052980;28;20041;-66
2022/11/16 02:52:17;;;;;;;0.90;0.52;;;11.50;99.90;;;;;;5057306;28;20639;-65
2022/11/16 02:54:43;;;;;;;0.30;0.30;;;11.50;99.90;;;;;;5059423;28;20047;-66
2022/11/16 02:57:08;;;;;;;0.10;0.10;;;11.50;99.90;;;;;;5050232;28;20427;-66
2022/11/16 02:59:45;;;;;;;0.73;0.73;;;11.50;99.90;;;;;;5062172;28;20079;-66
2022/11/16 03:02:36;;;;;;;0.35;0.35;;;11.50;99.90;;;;;;5064482;28;20530;-66
2022/11/16 03:05:30;;;;;;;2.38;0.57;;;11.50;99.90;;;;;;5053516;28;20555;-66
2022/11/16 03:08:07;;;;;;;0.35;0.35;;;11.50;99.90;;;;;;5053255;28;20096;-66
2022/11/16 03:13:25;;;;;;;0.30;0.30;;;11.60;99.90;;;;;;5073317;28;20048;-66
2022/11/16 03:15:53;;;;;;;0.30;0.30;;;11.50;99.90;;;;;;5067345;28;20045;-66
2022/11/16 03:18:21;;;;;;;0.05;0.05;;;11.50;99.90;;;;;;5044354;28;20044;-66
2022/11/16 03:20:51;;;;;;;0.30;0.30;;;11.60;99.90;;;;;;5073441;28;20041;-66
2022/11/16 03:23:17;;;;;;;0.10;0.10;;;11.50;99.90;;;;;;5052469;28;20045;-66
2022/11/16 03:25:49;;;;;;;0.50;0.50;;;11.50;99.90;;;;;;5055853;28;20873;-66
2022/11/16 03:28:32;;;;;;;0.50;0.50;;;11.60;99.90;;;;;;5056448;28;20056;-66
2022/11/16 03:31:04;;;;;;;0.10;0.10;;;11.60;99.90;;;;;;5069737;28;20049;-66
2022/11/16 03:33:35;;;;;;;0.25;0.25;;;11.60;99.90;;;;;;5072892;28;20431;-66
2022/11/16 03:36:20;;;;;;;0.17;0.17;;;11.60;99.90;;;;;;5068570;28;20044;-66
2022/11/16 03:38:49;;;;;;;0.20;0.20;;;11.60;99.90;;;;;;5053549;28;20041;-66
2022/11/16 03:41:16;;;;;;;0.10;0.10;;;11.60;99.90;;;;;;5058730;28;20098;-66
2022/11/16 03:43:43;;;;;;;0.30;0.30;;;11.60;99.90;;;;;;5054191;28;20056;-66
2022/11/16 03:46:10;;;;;;;1.77;1.17;;;11.60;99.90;;;;;;5057506;28;20045;-66
2022/11/16 03:48:38;;;;;;;0.10;0.10;;;11.60;99.90;;;;;;5072468;28;20045;-66
2022/11/16 03:51:06;;;;;;;0.77;0.77;;;11.60;99.90;;;;;;5064356;28;20136;-66
2022/11/16 03:53:32;;;;;;;0.10;0.10;;;11.60;99.90;;;;;;5049635;28;20389;-66
2022/11/16 03:55:57;;;;;;;0.20;0.20;;;11.60;99.90;;;;;;5052733;28;20064;-66
2022/11/16 03:58:23;;;;;;;0.30;0.30;;;11.60;99.90;;;;;;5066586;28;20487;-66
2022/11/16 04:00:49;;;;;;;0.10;0.10;;;11.60;99.90;;;;;;5064408;28;20610;-66
2022/11/16 04:03:15;;;;;;;0.38;0.38;;;11.50;99.90;;;;;;5044146;28;20494;-66
2022/11/16 04:25:10;;;;;;;0.15;0.15;;;11.60;99.90;;;;;;5059833;28;20052;-66
2022/11/16 04:30:21;;;;;;;0.20;0.20;;;11.60;99.90;;;;;;5070780;28;20052;-66
2022/11/16 04:38:15;;;;;;;0.10;0.10;;;11.60;99.90;;;;;;5067238;28;20056;-66
2022/11/16 04:40:41;;;;;;;0.03;0.03;;;11.60;99.90;;;;;;5064073;28;20037;-66
2022/11/16 04:43:07;;;;;;;0.25;0.25;;;11.50;99.90;;;;;;5058615;28;20144;-66
2022/11/16 04:48:18;;;;;;;0.32;0.32;;;11.50;99.90;;;;;;5052717;28;20107;-66
2022/11/16 04:50:45;;;;;;;0.25;0.25;;;11.60;99.90;;;;;;5052140;28;20041;-66
2022/11/16 04:53:11;;;;;;;0.75;0.75;;;11.60;99.90;;;;;;5063142;28;20514;-66
2022/11/16 04:55:37;;;;;;;0.30;0.30;;;11.50;99.90;;;;;;5050776;28;20405;-66
2022/11/16 04:58:03;;;;;;;0.10;0.10;;;11.60;99.90;;;;;;5066177;28;20094;-66
2022/11/16 05:00:29;;;;;;;0.80;0.75;;;11.60;99.90;;;;;;5057360;28;20036;-66
2022/11/16 05:02:55;;;;;;;0.28;0.28;;;11.60;99.90;;;;;;5039771;28;20040;-66
2022/11/16 05:05:21;;;;;;;0.20;0.20;;;11.60;99.90;;;;;;5050860;28;20102;-66
2022/11/16 05:07:47;;;;;;;0.10;0.10;;;11.60;99.90;;;;;;5068653;28;20045;-66
2022/11/16 05:10:13;;;;;;;1.95;1.00;;;11.50;99.90;;;;;;5057007;28;20033;-66
2022/11/16 05:12:39;;;;;;;0.13;0.13;;;11.50;99.90;;;;;;5068699;28;20048;-66
2022/11/16 05:15:06;;;;;;;4.32;0.93;;;11.50;99.90;;;;;;5070748;28;20032;-66
2022/11/16 05:17:32;;;;;;;0.10;0.10;;;11.50;99.90;;;;;;5059494;28;20439;-66
2022/11/16 05:22:42;;;;;;;0.57;0.57;;;11.50;99.90;;;;;;5069502;28;20404;-66
2022/11/16 05:25:08;;;;;;;0.10;0.10;;;11.50;99.90;;;;;;5053687;28;20048;-66
2022/11/16 05:27:34;;;;;;;0.10;0.10;;;11.50;99.90;;;;;;5065315;28;20587;-66
2022/11/16 05:30:00;;;;;;;0.30;0.30;;;11.50;99.90;;;;;;5070696;28;20047;-66
2022/11/16 05:32:26;;;;;;;0.10;0.10;;;11.50;99.90;;;;;;5058765;28;20408;-66
2022/11/16 05:34:52;;;;;;;0.17;0.17;;;11.50;99.90;;;;;;5056417;28;20060;-66
2022/11/16 05:37:19;;;;;;;0.20;0.20;;;11.50;99.90;;;;;;5045411;28;20048;-66
2022/11/16 05:39:46;;;;;;;0.10;0.10;;;11.50;99.90;;;;;;5068677;28;20404;-66
2022/11/16 05:42:11;;;;;;;0.10;0.10;;;11.50;99.90;;;;;;5055739;28;20916;-66
2022/11/16 05:44:37;;;;;;;0.10;0.10;;;11.50;99.90;;;;;;5064863;28;20058;-66
2022/11/16 05:47:02;;;;;;;0.10;0.10;;;11.50;99.90;;;;;;5060099;28;20044;-66
2022/11/16 05:49:28;;;;;;;0.10;0.10;;;11.50;99.90;;;;;;5035875;28;20094;-66
2022/11/16 05:51:53;;;;;;;5.57;1.50;;;11.50;99.90;;;;;;5065613;28;20131;-66
2022/11/16 05:54:22;;;;;;;0.10;0.10;;;11.50;99.90;;;;;;5068415;28;20040;-65
2022/11/16 05:56:48;;;;;;;0.28;0.28;;;11.50;99.90;;;;;;5063192;28;20045;-66
2022/11/16 05:59:16;;;;;;;0.20;0.20;;;11.40;99.90;;;;;;5060184;28;20174;-66
2022/11/16 06:01:42;;;;;;;0.10;0.10;;;11.50;99.90;;;;;;5058794;28;20052;-66
2022/11/16 06:04:08;;;;;;;0.20;0.20;;;11.40;99.90;;;;;;5034489;28;20107;-67
2022/11/16 06:06:34;;;;;;;0.08;0.08;;;11.50;99.90;;;;;;5057032;28;20046;-66
2022/11/16 06:08:59;;;;;;;4.20;0.98;;;11.40;99.90;;;;;;5068242;28;20067;-66
2022/11/16 06:11:25;;;;;;;0.10;0.10;;;11.40;99.90;;;;;;5060808;28;20075;-66
2022/11/16 06:13:51;;;;;;;0.50;0.50;;;11.50;99.90;;;;;;5063317;28;20495;-67
2022/11/16 06:16:16;;;;;;;0.30;0.30;;;11.40;99.90;;;;;;5050928;28;20084;-66
2022/11/16 06:18:44;;;;;;;0.10;0.10;;;11.40;99.90;;;;;;5051307;28;20048;-66
2022/11/16 06:21:10;;;;;;;0.20;0.20;;;11.40;99.90;;;;;;5049422;28;20047;-66
2022/11/16 06:23:36;;;;;;;0.00;0.00;;;11.30;99.90;;;;;;5049826;28;20116;-67
2022/11/16 06:26:02;;;;;;;0.10;0.10;;;11.40;99.90;;;;;;5063214;28;20041;-67
2022/11/16 06:28:28;;;;;;;0.15;0.15;;;11.40;99.90;;;;;;5049353;28;20060;-66
2022/11/16 06:30:55;;;;;;;0.10;0.10;;;11.30;99.90;;;;;;5050775;28;20045;-66
2022/11/16 06:33:20;;;;;;;0.10;0.10;;;11.40;99.90;;;;;;5041448;28;20431;-66
2022/11/16 06:35:46;;;;;;;0.10;0.10;;;11.40;99.90;;;;;;5052658;28;20115;-66
2022/11/16 06:38:17;;;;;;;0.10;0.10;;;11.30;99.90;;;;;;5068989;28;20037;-67
2022/11/16 06:40:53;;;;;;;0.10;0.10;;;11.30;99.90;;;;;;5058300;28;20072;-66
2022/11/16 06:43:20;;;;;;;0.10;0.10;;;11.40;99.90;;;;;;5044774;28;20048;-66
2022/11/16 06:45:54;;;;;;;0.10;0.10;;;11.30;99.90;;;;;;5068768;28;20036;-67
2022/11/16 06:48:21;;;;;;;0.73;0.63;;;11.30;99.90;;;;;;5068280;28;20042;-67
2022/11/16 06:50:48;;;;;;;0.40;0.40;;;11.30;99.90;;;;;;5046457;28;20045;-67
2022/11/16 06:53:14;;;;;;;0.10;0.10;;;11.30;99.90;;;;;;5032896;28;20510;-67
2022/11/16 06:55:40;;;;;;;0.63;0.63;;;11.30;99.90;;;;;;5059948;28;20037;-67
2022/11/16 06:58:05;;;;;;;0.20;0.20;;;11.30;99.90;;;;;;5066681;28;20323;-67
2022/11/16 07:00:31;;;;;;;0.13;0.13;;;11.30;99.90;;;;;;5058423;28;20432;-67
2022/11/16 07:02:56;;;;;;;0.10;0.10;;;11.30;99.90;;;;;;5068105;28;20105;-67
2022/11/16 07:05:22;;;;;;;0.00;0.00;;;11.30;99.90;;;;;;5068954;28;20047;-67
2022/11/16 07:07:52;;;;;;;0.03;0.03;;;11.30;99.90;;;;;;5055709;28;20045;-67
2022/11/16 07:10:18;;;;;;;0.00;0.00;;;11.30;99.90;;;;;;5059859;28;20071;-68
2022/11/16 07:12:43;;;;;;;0.17;0.17;;;11.30;99.90;;;;;;5053300;28;20049;-67
2022/11/16 07:15:09;;;;;;;0.10;0.10;;;11.30;99.90;;;;;;5058991;28;20038;-68
2022/11/16 07:17:35;;;;;;;0.10;0.10;;;11.30;99.90;;;;;;5066589;28;20127;-68
2022/11/16 07:20:01;;;;;;;0.17;0.15;;;11.20;99.90;;;;;;5066453;28;20040;-68
2022/11/16 07:22:26;;;;;;;0.20;0.20;;;11.30;99.90;;;;;;5067671;28;20056;-67
2022/11/16 07:24:52;;;;;;;0.17;0.17;;;11.30;99.90;;;;;;5050673;28;20045;-67
2022/11/16 07:27:18;;;;;;;0.10;0.10;;;11.20;99.90;;;;;;5059154;28;20037;-68
2022/11/16 07:29:43;;;;;;;0.10;0.10;;;11.20;99.90;;;;;;5056890;28;20040;-67
2022/11/16 07:32:09;;;;;;;0.00;0.00;;;11.20;99.90;;;;;;5070948;28;20045;-68
2022/11/16 07:34:34;;;;;;;0.10;0.10;;;11.30;99.90;;;;;;5069073;28;20044;-68
2022/11/16 07:37:00;;;;;;;0.10;0.10;;;11.20;99.90;;;;;;5066388;28;20058;-67
2022/11/16 07:39:25;;;;;;;0.10;0.10;;;11.20;99.90;;;;;;5069492;28;20040;-67
2022/11/16 07:41:52;;;;;;;0.10;0.10;;;11.20;99.90;;;;;;5043390;28;20044;-67
2022/11/16 07:44:18;;;;;;;0.00;0.00;;;11.20;99.90;;;;;;5060595;28;20305;-68
2022/11/16 07:46:44;;;;;;;0.00;0.00;;;11.20;99.90;;;;;;5070853;28;20040;-68
2022/11/16 07:49:17;;;;;;;0.70;0.55;;;11.20;99.90;;;;;;5054537;28;20454;-67
2022/11/16 07:51:44;;;;;;;0.00;0.00;;;11.20;99.90;;;;;;5070986;28;20365;-68
2022/11/16 07:54:14;;;;;;;0.10;0.10;;;11.20;99.90;;;;;;5071605;28;20044;-68
2022/11/16 07:56:40;;;;;;;0.28;0.28;;;11.20;99.90;;;;;;5064990;28;20132;-68
2022/11/16 07:59:06;;;;;;;0.40;0.40;;;11.20;99.90;;;;;;5051624;28;20049;-68
2022/11/16 08:01:32;;;;;;;0.10;0.10;;;11.10;99.90;;;;;;5072151;28;20107;-67
2022/11/16 08:04:00;;;;;;;0.30;0.25;;;11.10;99.90;;;;;;5072320;28;20044;-67
2022/11/16 08:06:29;;;;;;;0.40;0.40;;;11.10;99.90;;;;;;5061454;28;20270;-67
2022/11/16 08:08:55;;;;;;;0.10;0.10;;;11.20;99.90;;;;;;5052124;28;20123;-67
2022/11/16 08:11:21;;;;;;;0.20;0.20;;;11.20;99.90;;;;;;5071852;28;20041;-67
2022/11/16 08:13:46;;;;;;;0.10;0.10;;;11.10;99.90;;;;;;5071935;28;20083;-67
2022/11/16 08:16:17;;;;;;;0.10;0.10;;;11.10;99.90;;;;;;5059087;28;20047;-68
2022/11/16 08:18:43;;;;;;;0.20;0.20;;;11.10;99.90;;;;;;5061085;28;20044;-68
2022/11/16 08:21:12;;;;;;;0.00;0.00;;;11.10;99.90;;;;;;5050432;28;20561;-67
2022/11/16 08:23:39;;;;;;;0.10;0.10;;;11.10;99.90;;;;;;5062023;28;20128;-67
2022/11/16 08:26:14;;;;;;;0.65;0.65;;;11.10;99.90;;;;;;5032644;28;20088;-68
2022/11/16 08:28:40;;;;;;;0.85;0.85;;;11.10;99.90;;;;;;5034324;28;20045;-67
2022/11/16 08:31:08;;;;;;;0.10;0.10;;;11.10;99.90;;;;;;5051711;28;20072;-67
2022/11/16 08:33:34;;;;;;;0.10;0.10;;;11.10;99.90;;;;;;5051511;28;20061;-67
2022/11/16 08:36:07;;;;;;;0.15;0.15;;;11.10;99.90;;;;;;5032693;28;20045;-67
2022/11/16 08:38:33;;;;;;;0.20;0.20;;;11.10;99.90;;;;;;5051470;28;20041;-68
2022/11/16 08:40:59;;;;;;;0.00;0.00;;;11.20;99.90;;;;;;5035155;28;20106;-67
2022/11/16 08:43:25;;;;;;;0.00;0.00;;;11.20;99.90;;;;;;5066417;28;20453;-67
2022/11/16 08:45:52;;;;;;;1.10;1.05;;;11.10;99.90;;;;;;5071664;28;20579;-68
2022/11/16 08:48:18;;;;;;;0.10;0.10;;;11.20;99.90;;;;;;5063292;28;20377;-68
2022/11/16 08:50:44;;;;;;;0.10;0.10;;;11.20;99.90;;;;;;5051998;28;20439;-68
2022/11/16 08:53:09;;;;;;;0.05;0.05;;;11.20;99.90;;;;;;5050585;28;20041;-68
2022/11/16 08:55:35;;;;;;;0.10;0.10;;;11.30;99.90;;;;;;5051161;28;20041;-67
2022/11/16 08:58:01;;;;;;;0.10;0.10;;;11.30;99.90;;;;;;5056543;28;20320;-67
2022/11/16 09:00:27;;;;;;;0.30;0.30;;;11.30;99.90;;;;;;5051680;28;20519;-67
2022/11/16 09:02:52;;;;;;;0.10;0.10;;;11.30;99.90;;;;;;5050180;28;20045;-67
2022/11/16 09:05:18;;;;;;;0.20;0.20;;;11.40;99.90;;;;;;5069539;28;20044;-67
2022/11/16 09:07:44;;;;;;;0.00;0.00;;;11.40;99.90;;;;;;5056619;28;20423;-68
2022/11/16 09:10:11;;;;;;;0.10;0.10;;;11.40;99.90;;;;;;5059255;28;20484;-67
2022/11/16 09:12:37;;;;;;;0.03;0.03;;;11.40;99.90;;;;;;5070793;28;20058;-67
2022/11/16 09:15:04;;;;;;;2.28;0.57;;;11.40;99.90;;;;;;5061040;28;20040;-68
2022/11/16 09:17:30;;;;;;;0.10;0.10;;;11.40;99.90;;;;;;5032980;28;20045;-67
2022/11/16 09:19:56;;;;;;;0.00;0.00;;;11.40;99.90;;;;;;5050955;28;20056;-67
2022/11/16 09:22:22;;;;;;;0.10;0.10;;;11.50;99.90;;;;;;5061709;28;20047;-68
2022/11/16 09:24:47;;;;;;;0.40;0.40;;;11.60;99.90;;;;;;5062643;28;20051;-67
2022/11/16 09:27:13;;;;;;;0.65;0.65;;;11.60;99.90;;;;;;5050318;28;20045;-67
2022/11/16 09:29:39;;;;;;;0.20;0.20;;;11.70;99.90;;;;;;5050600;28;20087;-67
2022/11/16 09:32:05;;;;;;;0.10;0.10;;;11.70;99.90;;;;;;5049670;28;20064;-68
2022/11/16 09:34:33;;;;;;;0.32;0.32;;;11.80;99.90;;;;;;5051185;28;20053;-67
2022/11/16 09:36:59;;;;;;;0.10;0.10;;;11.80;99.90;;;;;;5049947;28;20060;-68
2022/11/16 09:39:25;;;;;;;0.10;0.10;;;11.80;99.90;;;;;;5051174;28;20041;-67
2022/11/16 09:42:20;;;;;;;0.13;0.13;;;11.90;99.90;;;;;;5061390;28;20461;-67
2022/11/16 09:44:57;;;;;;;1.02;0.80;;;11.90;99.90;;;;;;5067409;28;20058;-67
2022/11/16 09:47:52;;;;;;;0.63;0.50;;;11.90;99.90;;;;;;5052736;28;20037;-66
2022/11/16 09:50:38;;;;;;;0.40;0.40;;;12.00;99.90;;;;;;5048990;28;20056;-67
2022/11/16 09:53:15;;;;;;;0.47;0.47;;;12.00;99.90;;;;;;5061092;28;20106;-67
2022/11/16 09:55:57;;;;;;;0.68;0.68;;;12.00;99.90;;;;;;5032538;28;20056;-66
2022/11/16 09:58:33;;;;;;;1.27;0.82;;;12.00;99.90;;;;;;5048119;28;20052;-66
2022/11/16 10:01:21;;;;;;;0.05;0.05;;;12.00;99.90;;;;;;5050920;28;20052;-67
2022/11/16 10:03:50;;;;;;;0.20;0.20;;;12.00;99.90;;;;;;5065570;28;20044;-66
2022/11/16 10:06:22;;;;;;;0.10;0.10;;;12.00;99.90;;;;;;5056379;28;20072;-66
2022/11/16 10:08:50;;;;;;;0.30;0.30;;;12.00;99.90;;;;;;5051059;28;20506;-67
2022/11/16 10:11:34;;;;;;;0.20;0.20;;;12.00;99.90;;;;;;5065845;28;20947;-67
2022/11/16 10:14:20;;;;;;;8.68;1.90;;;12.00;99.90;;;;;;5059727;28;20071;-67
2022/11/16 10:17:01;;;;;;;0.20;0.20;;;12.10;99.90;;;;;;5051574;28;20082;-67
2022/11/16 10:19:53;;;;;;;0.30;0.30;;;12.10;99.90;;;;;;5069278;28;20056;-67
2022/11/16 10:22:24;;;;;;;0.28;0.28;;;12.10;99.90;;;;;;5052442;28;20381;-67
2022/11/16 10:24:56;;;;;;;0.25;0.25;;;12.20;99.90;;;;;;5031959;28;20057;-66
2022/11/16 10:27:56;;;;;;;0.10;0.10;;;12.10;99.90;;;;;;5031852;28;20053;-67
2022/11/16 10:30:22;;;;;;;0.10;0.10;;;12.10;99.90;;;;;;5049186;28;20491;-67
2022/11/16 10:33:12;;;;;;;0.25;0.25;;;12.10;99.90;;;;;;5056982;28;20036;-67
2022/11/16 10:35:46;;;;;;;4.57;1.38;;;12.00;99.90;;;;;;5053483;28;20091;-66
2022/11/16 10:38:14;;;;;;;0.20;0.20;;;12.00;99.90;;;;;;5052973;28;20037;-66
2022/11/16 10:40:43;;;;;;;0.10;0.10;;;12.10;99.90;;;;;;5068538;28;20488;-66
2022/11/16 10:43:18;;;;;;;0.43;0.43;;;12.10;99.90;;;;;;5043201;28;20430;-66
2022/11/16 10:45:51;;;;;;;0.28;0.28;;;12.20;99.90;;;;;;5061264;28;20041;-66
2022/11/16 10:48:21;;;;;;;0.47;0.47;;;12.20;99.90;;;;;;5041474;28;20356;-66
2022/11/16 10:50:49;;;;;;;0.68;0.68;;;12.20;99.90;;;;;;5070053;28;20115;-66
2022/11/16 10:53:28;;;;;;;0.20;0.20;;;12.20;99.90;;;;;;5053628;28;20052;-66
2022/11/16 10:56:18;;;;;;;0.20;0.20;;;12.20;99.90;;;;;;5062213;28;20396;-66
2022/11/16 10:58:51;;;;;;;0.20;0.20;;;12.30;99.90;;;;;;5067638;28;20052;-66
2022/11/16 11:01:39;;;;;;;0.10;0.10;;;12.20;99.90;;;;;;5049590;28;20105;-66
2022/11/16 11:04:21;;;;;;;0.10;0.10;;;12.30;99.90;;;;;;5071447;28;20064;-66
2022/11/16 11:06:51;;;;;;;0.00;0.00;;;12.30;99.90;;;;;;5056188;28;20033;-66
2022/11/16 11:09:30;;;;;;;41.40;1.10;;;12.40;99.90;;;;;;5041134;28;20439;-66
2022/11/16 11:15:03;;;;;;;0.10;0.10;;;12.40;99.90;;;;;;5061000;28;20504;-67
2022/11/16 11:17:30;;;;;;;1.35;0.70;;;12.30;99.90;;;;;;5062096;28;20056;-66
2022/11/16 11:20:03;;;;;;;0.10;0.10;;;12.20;99.90;;;;;;5053476;28;20048;-66
2022/11/16 11:22:30;;;;;;;0.20;0.20;;;12.20;99.90;;;;;;5034360;28;20045;-66
2022/11/16 11:24:56;;;;;;;0.10;0.10;;;12.10;99.90;;;;;;5064685;28;20036;-66
2022/11/16 11:27:31;;;;;;;0.40;0.40;;;12.10;99.90;;;;;;5070145;28;20399;-66
2022/11/16 11:29:57;;;;;;;0.28;0.28;;;12.10;99.90;;;;;;5045000;28;20095;-66
2022/11/16 11:32:31;;;;;;;0.22;0.22;;;12.10;99.90;;;;;;5053263;28;20057;-66
2022/11/16 11:34:59;;;;;;;0.30;0.30;;;12.10;99.90;;;;;;5051825;28;20577;-66
2022/11/16 11:37:30;;;;;;;0.10;0.10;;;12.20;99.90;;;;;;5051965;28;20076;-66
2022/11/16 11:40:17;;;;;;;0.10;0.10;;;12.10;99.90;;;;;;5063874;28;20480;-66
2022/11/16 11:43:01;;;;;;;0.35;0.30;;;12.10;99.90;;;;;;5068457;28;20060;-66
2022/11/16 11:45:40;;;;;;;0.20;0.20;;;11.90;99.90;;;;;;5053001;28;20071;-66
2022/11/16 11:48:46;;;;;;;2.15;1.05;;;12.00;99.90;;;;;;5052677;28;20049;-66
2022/11/16 11:51:41;;;;;;;1.92;0.63;;;12.00;99.90;;;;;;5050890;28;20396;-66
2022/11/16 11:54:14;;;;;;;0.13;0.13;;;11.90;99.90;;;;;;5041802;28;20476;-66
2022/11/16 11:56:39;;;;;;;0.10;0.10;;;11.90;99.90;;;;;;5067286;28;20057;-66
2022/11/16 11:59:05;;;;;;;0.80;0.45;;;11.90;99.90;;;;;;5070554;28;20048;-67
2022/11/16 12:01:49;;;;;;;0.32;0.32;;;11.90;99.90;;;;;;5046815;28;20140;-66
2022/11/16 12:04:30;;;;;;;;;;;11.90;99.90;;;;;;5071400;28;20115;-65
2022/11/16 12:07:16;;;;;;;0.10;0.10;;;11.90;99.90;;;;;;5070140;28;19974;-66
2022/11/16 12:09:47;;;;;;;1.00;0.90;;;11.90;99.90;;;;;;5062238;28;20041;-66
2022/11/16 12:12:42;;;;;;;0.25;0.25;;;11.90;99.90;;;;;;5060259;28;20059;-66
2022/11/16 12:15:34;;;;;;;0.30;0.30;;;12.00;99.90;;;;;;5034694;28;20144;-66
2022/11/16 12:18:08;;;;;;;0.10;0.10;;;12.00;99.90;;;;;;5036163;28;20530;-66
2022/11/16 12:20:51;;;;;;;0.20;0.20;;;12.10;99.90;;;;;;5069826;28;20094;-66
2022/11/16 12:23:51;;;;;;;0.10;0.10;;;12.20;99.90;;;;;;5053823;28;20043;-65
2022/11/16 12:26:27;;;;;;;0.30;0.30;;;12.10;99.90;;;;;;5064732;28;20091;-65
2022/11/16 12:29:28;;;;;;;1.02;0.82;;;12.20;99.90;;;;;;5053416;28;20098;-65
2022/11/16 12:31:59;;;;;;;0.00;0.00;;;12.30;99.90;;;;;;5055858;28;20045;-65
2022/11/16 12:34:42;;;;;;;0.10;0.10;;;12.40;99.90;;;;;;5033783;28;20049;-65
2022/11/16 12:37:42;;;;;;;0.10;0.10;;;12.20;99.90;;;;;;5033914;28;20059;-66
2022/11/16 12:40:29;;;;;;;0.10;0.10;;;12.30;99.90;;;;;;5035196;28;20055;-66
2022/11/16 12:43:16;;;;;;;0.10;0.10;;;12.20;99.90;;;;;;5053152;28;20047;-66
2022/11/16 12:46:04;;;;;;;0.10;0.10;;;12.50;99.90;;;;;;5061812;28;20062;-66
2022/11/16 12:48:45;;;;;;;0.10;0.10;;;12.90;99.90;;;;;;5068187;28;20756;-65
2022/11/16 12:51:37;;;;;;;2.72;0.77;;;13.40;99.90;;;;;;5051209;28;20048;-65
2022/11/16 12:54:42;;;;;;;0.10;0.10;;;13.50;99.90;;;;;;5053071;28;20076;-66
2022/11/16 12:57:46;;;;;;;0.10;0.10;;;13.80;99.90;;;;;;5059701;28;20047;-66
2022/11/16 13:00:18;;;;;;;1.92;1.08;;;14.20;99.90;;;;;;5057681;28;20500;-66
2022/11/16 13:03:07;;;;;;;0.10;0.10;;;14.50;99.90;;;;;;5046112;28;20123;-66
2022/11/16 13:05:42;;;;;;;1.10;1.10;;;14.50;99.90;;;;;;5070496;28;20674;-66
2022/11/16 13:08:15;;;;;;;0.60;0.60;;;14.60;99.90;;;;;;5052057;28;20509;-66
2022/11/16 13:10:45;;;;;;;0.10;0.10;;;14.60;99.90;;;;;;5050760;28;20476;-66
2022/11/16 13:13:20;;;;;;;0.08;0.08;;;14.70;99.90;;;;;;5067131;28;20041;-66
2022/11/16 13:15:46;;;;;;;0.10;0.10;;;14.40;99.90;;;;;;5058799;28;20037;-66
2022/11/16 13:18:15;;;;;;;0.15;0.15;;;14.40;99.90;;;;;;5051003;28;20104;-66
2022/11/16 13:21:03;;;;;;;0.40;0.40;;;14.00;99.90;;;;;;5051420;28;20746;-66
2022/11/16 13:23:59;;;;;;;0.10;0.10;;;13.80;99.90;;;;;;5052470;28;20044;-66
2022/11/16 13:26:44;;;;;;;0.10;0.10;;;13.60;99.90;;;;;;5067806;28;20044;-66
2022/11/16 13:29:34;;;;;;;0.10;0.10;;;13.40;99.90;;;;;;5056339;28;20179;-66
2022/11/16 13:32:31;;;;;;;0.00;0.00;;;13.30;99.90;;;;;;5055093;28;20071;-66
2022/11/16 13:34:58;;;;;;;0.40;0.40;;;13.20;99.90;;;;;;5070695;28;20555;-66
2022/11/16 13:37:33;;;;;;;1.27;1.17;;;13.00;99.90;;;;;;5069854;28;20045;-66
2022/11/16 13:39:58;;;;;;;0.10;0.10;;;12.90;99.90;;;;;;5069631;28;20102;-66
2022/11/16 13:42:25;;;;;;;0.10;0.10;;;12.80;99.90;;;;;;5071403;28;20044;-66
2022/11/16 13:44:52;;;;;;;0.10;0.10;;;12.80;99.90;;;;;;5070388;28;20083;-66
2022/11/16 13:47:29;;;;;;;0.00;0.00;;;12.80;99.90;;;;;;5062722;28;20044;-66
2022/11/16 13:50:01;;;;;;;0.00;0.00;;;12.70;99.90;;;;;;5050528;28;20758;-66